Main page


Airports :

Cerklje ob Krki, Slovenia

Cerklje ob Krki Airport

latitude: 45-53-59N, longitude: 15-30-55E, elevation: 157 m

Current weather observation

The report was made 23 minutes ago, at 17:00 UTC
Wind 9 kt from the East/Southeast
Temperature 7°C
Humidity 53%
Pressure 1006 hPa
Visibility 10 km or more

METAR: LJCE 241700Z AUTO 11009KT 9999 NSC 07/M02 Q1006

Time: 18:23 (17:23 UTC)


The report was made 3 hours and 23 minutes ago, at 14:00 UTC
Forecast valid from 24 at 15 UTC to 24 at 24 UTC
Wind 5 kt from the East
Visibility 10 km or more
Few clouds at a height of 3000 ft
Broken clouds at a height of 5500 ft

TAF: LJCE 241400Z 2415/2424 08005KT 9999 FEW030 BKN055

Weather observations and forecasts of more than 4000 airports (METAR and TAF reports).

The available stations are represented by yellow and red dots on the map.

Hover mouse over dot to see the name of the station.

Then click to see weather observations and forecasts.

To change the map : click on the green buttons with a black cross to zoom in, on the green button with a dash to zoom out, or on the green arrows for adjacent maps.